Pagrindinis puslapis
METAR-TAF:

METAR-TAF

Oro uostai :

Upsala, Švedija

platuma: 59-53N, ilguma: 017-36E, Aukštis: 21 m

Dabartinis oras

Ataskaita buvo paskelbta 18 minutes, ne 15:50 UTC
Vėjas 12 kt iš Pietvakarių
Temperatūra 6°C
Drėgmė 70%
Slėgis 999 hPa
Matomumas 10 km arba daugiau

METAR: ESCM 211550Z AUTO 22012KT 9999 NCD 06/01 Q0999

Laikas: 17:08 (16:08 UTC)

Prognozė

Ataskaita buvo paskelbta 7 valandos ir 43 minutes, ne 08:25 UTC
Prognozė galioja nuo 21 metu 09 UTC su 21 metu 11 UTC
Vėjas 12 kt iš Vakarų/Pietvakarių su gūsio iki 22 kt
Matomumas 10 km arba daugiau
nėra debesų žemiau 1500 m ir nėra kamuolinių lietaus debesų

TAF: ESCM 210825Z 2109/2111 25012G22KT CAVOK RMK MIL

Orai ataskaitas ir orų prognozės (METAR, TAF).

turimą stotys yra geltonos ir raudonos taškus žemėlapyje.

Perkelti pele per norėdami pamatyti stoties vardą.

Tada spustelėkite, norėdami matyti oro stebėjimo ir prognozės.

Norėdami pakeisti žemėlapį: spustelėkite ant žalios mygtukų su juodo kryžiaus žemyn,; žalią mygtuką su brūkšneliu, jei norite nutolinti; arba žalių rodyklių gretimoms žemėlapius.


METAR-TAF: